createdAt,value
2019-05-09T00:00:29.286Z,22.46
2019-05-09T00:00:53.931Z,22.46
2019-05-09T00:01:18.526Z,22.45
2019-05-09T00:01:43.907Z,22.43
2019-05-09T00:02:10.289Z,22.44
2019-05-09T00:02:36.511Z,22.42
2019-05-09T00:03:03.419Z,22.42
2019-05-09T00:03:30.285Z,22.42
2019-05-09T00:03:54.442Z,22.41
2019-05-09T00:04:19.109Z,22.41
2019-05-09T00:04:44.116Z,22.39
2019-05-09T00:05:09.049Z,22.39
2019-05-09T00:05:33.713Z,22.39
2019-05-09T00:05:58.327Z,22.38
2019-05-09T00:06:23.951Z,22.37
2019-05-09T00:06:48.679Z,22.37
2019-05-09T00:07:14.150Z,22.37
2019-05-09T00:07:38.799Z,22.35
2019-05-09T00:08:03.665Z,22.36
2019-05-09T00:08:28.437Z,22.35
2019-05-09T00:08:53.369Z,22.33
2019-05-09T00:09:18.193Z,22.34
2019-05-09T00:09:44.084Z,22.34
2019-05-09T00:10:10.063Z,22.33
2019-05-09T00:10:39.564Z,22.32
2019-05-09T00:11:01.048Z,22.32
2019-05-09T00:11:25.681Z,22.32
2019-05-09T00:11:50.261Z,22.32
2019-05-09T00:12:14.900Z,22.31
2019-05-09T00:12:39.481Z,22.32
2019-05-09T00:13:04.293Z,22.31
2019-05-09T00:13:29.117Z,22.32
2019-05-09T00:13:53.960Z,22.31
2019-05-09T00:14:18.837Z,22.31
2019-05-09T00:14:43.531Z,22.31
2019-05-09T00:15:08.243Z,22.29
2019-05-09T00:15:33.362Z,22.30
2019-05-09T00:15:58.120Z,22.30
2019-05-09T00:16:23.517Z,22.31
2019-05-09T00:16:48.506Z,22.31
2019-05-09T00:17:14.297Z,22.31
2019-05-09T00:17:38.855Z,22.31
2019-05-09T00:18:04.010Z,22.31
2019-05-09T00:18:28.750Z,22.30
2019-05-09T00:18:54.247Z,22.31
2019-05-09T00:19:19.047Z,22.30
2019-05-09T00:19:43.984Z,22.31
2019-05-09T00:20:10.790Z,22.31
2019-05-09T00:20:37.070Z,22.30
2019-05-09T00:21:23.907Z,22.30
2019-05-09T00:21:50.224Z,22.29
2019-05-09T00:22:14.928Z,22.28
2019-05-09T00:22:39.507Z,22.28
2019-05-09T00:23:04.251Z,22.26
2019-05-09T00:23:28.862Z,22.26
2019-05-09T00:23:54.123Z,22.26
2019-05-09T00:24:18.929Z,22.25
2019-05-09T00:24:44.701Z,22.25
2019-05-09T00:25:09.539Z,22.24
2019-05-09T00:25:34.169Z,22.25
2019-05-09T00:25:58.798Z,22.24
2019-05-09T00:26:23.669Z,22.23
2019-05-09T00:26:48.498Z,22.23
2019-05-09T00:27:14.333Z,22.23
2019-05-09T00:27:39.053Z,22.24
2019-05-09T00:28:04.279Z,22.23
2019-05-09T00:28:33.767Z,22.24
2019-05-09T00:29:17.134Z,22.23
2019-05-09T00:29:46.119Z,22.23
2019-05-09T00:30:10.896Z,22.21
2019-05-09T00:30:55.515Z,22.20
2019-05-09T00:31:23.793Z,22.19
2019-05-09T00:32:03.487Z,22.17
2019-05-09T00:32:34.050Z,22.16
2019-05-09T00:32:58.861Z,22.15
2019-05-09T00:33:30.902Z,22.13
2019-05-09T00:33:57.167Z,22.11
2019-05-09T00:34:29.454Z,22.09
2019-05-09T00:34:55.792Z,22.07
2019-05-09T00:35:24.778Z,22.06
2019-05-09T00:35:49.429Z,22.05
2019-05-09T00:36:14.156Z,22.05
2019-05-09T00:36:38.748Z,22.04
2019-05-09T00:37:03.346Z,22.03
2019-05-09T00:37:45.587Z,22.03
2019-05-09T00:38:10.187Z,22.02
2019-05-09T00:38:46.954Z,22.02
2019-05-09T00:39:13.409Z,22.01
2019-05-09T00:39:37.908Z,22.00
2019-05-09T00:40:04.060Z,22.00
2019-05-09T00:40:28.841Z,22.00
2019-05-09T00:40:58.665Z,21.99
2019-05-09T00:41:19.790Z,22.00
2019-05-09T00:41:44.408Z,22.00
2019-05-09T00:42:09.041Z,21.99
2019-05-09T00:42:33.754Z,21.99
2019-05-09T00:42:58.368Z,21.98
2019-05-09T00:43:23.807Z,21.97
2019-05-09T00:43:56.172Z,21.98
2019-05-09T00:44:23.249Z,21.98
2019-05-09T00:44:49.546Z,21.96
2019-05-09T00:45:15.801Z,21.96
2019-05-09T00:45:58.210Z,21.96
2019-05-09T00:46:24.511Z,21.95
2019-05-09T00:46:53.647Z,21.95
2019-05-09T00:47:19.893Z,21.95
2019-05-09T00:47:44.546Z,21.93
2019-05-09T00:48:09.392Z,21.92
2019-05-09T00:48:53.914Z,21.92
2019-05-09T00:49:20.165Z,21.92
2019-05-09T00:49:44.784Z,21.91
2019-05-09T00:50:09.413Z,21.90
2019-05-09T00:50:34.246Z,21.90
2019-05-09T00:50:58.954Z,21.89
2019-05-09T00:51:23.598Z,21.88
2019-05-09T00:51:48.172Z,21.89
2019-05-09T00:52:14.119Z,21.88
2019-05-09T00:52:38.962Z,21.88
2019-05-09T00:53:03.582Z,21.87
2019-05-09T00:53:28.192Z,21.88
2019-05-09T00:53:53.709Z,21.88
2019-05-09T00:54:18.423Z,21.88
2019-05-09T00:54:43.823Z,21.88
2019-05-09T00:55:08.535Z,21.88
2019-05-09T00:55:33.381Z,21.87
2019-05-09T00:55:58.042Z,21.88
2019-05-09T00:56:23.975Z,21.88
2019-05-09T00:56:48.928Z,21.87
2019-05-09T00:57:15.854Z,21.87
2019-05-09T00:57:40.518Z,21.86
2019-05-09T00:58:05.161Z,21.87
2019-05-09T00:58:29.799Z,21.87
2019-05-09T00:58:54.420Z,21.87
2019-05-09T00:59:19.044Z,21.87
2019-05-09T00:59:44.649Z,21.87
2019-05-09T01:00:14.671Z,21.86
2019-05-09T01:00:38.175Z,21.87
2019-05-09T01:01:04.343Z,21.86
2019-05-09T01:01:29.332Z,21.86
2019-05-09T01:01:54.419Z,21.87
2019-05-09T01:02:19.264Z,21.86
2019-05-09T01:02:43.878Z,21.86
2019-05-09T01:03:08.515Z,21.86
2019-05-09T01:03:33.964Z,21.86
2019-05-09T01:03:58.844Z,21.87
2019-05-09T01:04:24.268Z,21.87
2019-05-09T01:04:48.926Z,21.87
2019-05-09T01:05:14.458Z,21.87
2019-05-09T01:05:39.064Z,21.87
2019-05-09T01:06:04.501Z,21.87
2019-05-09T01:06:29.720Z,21.86
2019-05-09T01:06:54.421Z,21.86
2019-05-09T01:07:19.068Z,21.87
2019-05-09T01:07:43.710Z,21.86
2019-05-09T01:08:08.337Z,21.86
2019-05-09T01:08:33.613Z,21.86
2019-05-09T01:08:58.844Z,21.86
2019-05-09T01:09:24.183Z,21.86
2019-05-09T01:09:49.112Z,21.86
2019-05-09T01:10:14.428Z,21.86
2019-05-09T01:10:39.012Z,21.86
2019-05-09T01:11:11.378Z,21.85
2019-05-09T01:11:30.087Z,21.86
2019-05-09T01:11:54.701Z,21.86
2019-05-09T01:12:19.326Z,21.85
2019-05-09T01:12:43.950Z,21.85
2019-05-09T01:13:08.580Z,21.86
2019-05-09T01:13:34.322Z,21.85
2019-05-09T01:13:59.127Z,21.84
2019-05-09T01:14:23.871Z,21.84
2019-05-09T01:14:48.981Z,21.85
2019-05-09T01:15:14.893Z,21.84
2019-05-09T01:15:39.527Z,21.83
2019-05-09T01:16:04.746Z,21.83
2019-05-09T01:16:29.629Z,21.82
2019-05-09T01:16:54.261Z,21.83
2019-05-09T01:17:19.131Z,21.83
2019-05-09T01:17:44.228Z,21.83
2019-05-09T01:18:08.897Z,21.84
2019-05-09T01:18:34.494Z,21.83
2019-05-09T01:18:59.130Z,21.84
2019-05-09T01:19:23.785Z,21.83
2019-05-09T01:19:48.395Z,21.82
2019-05-09T01:20:14.728Z,21.83
2019-05-09T01:20:39.411Z,21.83
2019-05-09T01:21:04.846Z,21.82
2019-05-09T01:21:29.533Z,21.83
2019-05-09T01:21:54.362Z,21.82
2019-05-09T01:22:18.991Z,21.82
2019-05-09T01:22:43.744Z,21.82
2019-05-09T01:23:08.447Z,21.81
2019-05-09T01:23:34.360Z,21.81
2019-05-09T01:23:59.362Z,21.81
2019-05-09T01:24:23.979Z,21.82
2019-05-09T01:24:48.591Z,21.81
2019-05-09T01:25:13.492Z,21.81
2019-05-09T01:25:38.263Z,21.81
2019-05-09T01:26:03.818Z,21.81
2019-05-09T01:26:28.771Z,21.81
2019-05-09T01:26:54.181Z,21.79
2019-05-09T01:27:19.157Z,21.79
2019-05-09T01:27:43.754Z,21.79
2019-05-09T01:28:08.409Z,21.79
2019-05-09T01:28:33.953Z,21.79
2019-05-09T01:28:58.806Z,21.80
2019-05-09T01:29:23.554Z,21.79
2019-05-09T01:29:48.388Z,21.78
2019-05-09T01:30:13.646Z,21.80
2019-05-09T01:30:38.306Z,21.79
2019-05-09T01:31:04.138Z,21.79
2019-05-09T01:31:29.060Z,21.79
2019-05-09T01:31:55.285Z,21.78
2019-05-09T01:32:37.111Z,21.78
2019-05-09T01:33:06.183Z,21.78
2019-05-09T01:33:33.301Z,21.76
2019-05-09T01:34:13.343Z,21.76
2019-05-09T01:34:38.080Z,21.75
2019-05-09T01:35:03.881Z,21.73
2019-05-09T01:35:28.617Z,21.71
2019-05-09T01:35:54.069Z,21.72
2019-05-09T01:36:18.762Z,21.72
2019-05-09T01:37:03.437Z,21.72
2019-05-09T01:37:27.708Z,21.70
2019-05-09T01:37:53.909Z,21.70
2019-05-09T01:38:18.790Z,21.71
2019-05-09T01:38:43.486Z,21.71
2019-05-09T01:39:08.078Z,21.70
2019-05-09T01:39:33.850Z,21.70
2019-05-09T01:39:58.563Z,21.70
2019-05-09T01:40:23.890Z,21.69
2019-05-09T01:40:48.637Z,21.69
2019-05-09T01:41:27.150Z,21.69
2019-05-09T01:41:39.551Z,21.70
2019-05-09T01:42:04.274Z,21.71
2019-05-09T01:42:28.894Z,21.70
2019-05-09T01:42:53.858Z,21.70
2019-05-09T01:43:18.643Z,21.69
2019-05-09T01:43:44.291Z,21.70
2019-05-09T01:44:09.714Z,21.70
2019-05-09T01:44:34.312Z,21.70
2019-05-09T01:44:59.005Z,21.70
2019-05-09T01:45:25.251Z,21.70
2019-05-09T01:45:49.887Z,21.69
2019-05-09T01:46:14.628Z,21.70
2019-05-09T01:46:40.156Z,21.69
2019-05-09T01:47:04.862Z,21.70
2019-05-09T01:47:29.481Z,21.70
2019-05-09T01:47:54.045Z,21.70
2019-05-09T01:48:18.763Z,21.70
2019-05-09T01:48:43.389Z,21.70
2019-05-09T01:49:08.177Z,21.70
2019-05-09T01:49:34.199Z,21.70
2019-05-09T01:49:59.235Z,21.70
2019-05-09T01:50:23.861Z,21.70
2019-05-09T01:50:48.465Z,21.69
2019-05-09T01:51:14.473Z,21.70
2019-05-09T01:51:39.187Z,21.69
2019-05-09T01:52:04.265Z,21.70
2019-05-09T01:52:28.872Z,21.70
2019-05-09T01:52:53.506Z,21.70
2019-05-09T01:53:19.749Z,21.69
2019-05-09T01:53:46.018Z,21.70
2019-05-09T01:54:10.633Z,21.70
2019-05-09T01:54:36.284Z,21.69
2019-05-09T01:55:00.975Z,21.69
2019-05-09T01:55:43.779Z,21.67
2019-05-09T01:56:08.395Z,21.67
2019-05-09T01:56:33.911Z,21.67
2019-05-09T01:56:58.622Z,21.66
2019-05-09T01:57:23.378Z,21.66
2019-05-09T01:57:48.128Z,21.66
2019-05-09T01:58:13.862Z,21.66
2019-05-09T01:58:38.662Z,21.65
2019-05-09T01:59:03.486Z,21.65
2019-05-09T01:59:28.093Z,21.65
2019-05-09T01:59:53.225Z,21.64
2019-05-09T02:00:18.121Z,21.64
2019-05-09T02:00:43.600Z,21.64
2019-05-09T02:01:09.205Z,21.66
2019-05-09T02:01:34.467Z,21.66
2019-05-09T02:01:59.192Z,21.64
2019-05-09T02:02:24.023Z,21.64
2019-05-09T02:02:48.677Z,21.63
2019-05-09T02:03:13.989Z,21.64
2019-05-09T02:03:38.775Z,21.62
2019-05-09T02:04:04.050Z,21.63
2019-05-09T02:04:28.893Z,21.62
2019-05-09T02:04:53.517Z,21.62
2019-05-09T02:05:18.182Z,21.62
2019-05-09T02:05:43.490Z,21.63
2019-05-09T02:06:08.203Z,21.62
2019-05-09T02:06:33.353Z,21.62
2019-05-09T02:06:58.057Z,21.62
2019-05-09T02:07:23.747Z,21.62
2019-05-09T02:07:48.448Z,21.63
2019-05-09T02:08:14.241Z,21.63
2019-05-09T02:08:39.147Z,21.63
2019-05-09T02:09:05.413Z,21.63
2019-05-09T02:09:30.017Z,21.63
2019-05-09T02:09:54.741Z,21.63
2019-05-09T02:10:19.379Z,21.63
2019-05-09T02:10:44.249Z,21.63
2019-05-09T02:11:08.974Z,21.62
2019-05-09T02:11:42.352Z,21.63
2019-05-09T02:11:59.946Z,21.63
2019-05-09T02:12:24.689Z,21.63
2019-05-09T02:12:49.388Z,21.63
2019-05-09T02:13:14.594Z,21.62
2019-05-09T02:13:39.193Z,21.63
2019-05-09T02:14:04.215Z,21.63
2019-05-09T02:14:36.436Z,21.62
2019-05-09T02:15:03.915Z,21.63
2019-05-09T02:15:47.014Z,21.63
2019-05-09T02:16:29.707Z,21.63
2019-05-09T02:17:03.244Z,21.63
2019-05-09T02:17:29.627Z,21.62
2019-05-09T02:18:04.263Z,21.60
2019-05-09T02:18:26.873Z,21.60
2019-05-09T02:18:53.502Z,21.59
2019-05-09T02:19:24.078Z,21.59
2019-05-09T02:19:48.908Z,21.59
2019-05-09T02:20:14.691Z,21.59
2019-05-09T02:20:39.283Z,21.57
2019-05-09T02:21:04.185Z,21.58
2019-05-09T02:21:28.835Z,21.57
2019-05-09T02:21:53.418Z,21.57
2019-05-09T02:22:34.462Z,21.57
2019-05-09T02:22:59.549Z,21.58
2019-05-09T02:23:24.154Z,21.57
2019-05-09T02:23:48.753Z,21.58
2019-05-09T02:24:14.204Z,21.57
2019-05-09T02:24:40.492Z,21.57
2019-05-09T02:25:09.515Z,21.58
2019-05-09T02:25:34.103Z,21.58
2019-05-09T02:25:58.836Z,21.57
2019-05-09T02:26:24.035Z,21.56
2019-05-09T02:26:48.865Z,21.57
2019-05-09T02:27:14.628Z,21.57
2019-05-09T02:27:39.308Z,21.57
2019-05-09T02:28:03.981Z,21.58
2019-05-09T02:28:29.382Z,21.58
2019-05-09T02:28:54.042Z,21.59
2019-05-09T02:29:18.624Z,21.58
2019-05-09T02:29:43.988Z,21.57
2019-05-09T02:30:11.706Z,21.58
2019-05-09T02:30:37.024Z,21.59
2019-05-09T02:31:05.066Z,21.58
2019-05-09T02:31:28.030Z,21.58
2019-05-09T02:31:54.670Z,21.58
2019-05-09T02:32:19.046Z,21.59
2019-05-09T02:32:45.087Z,21.57
2019-05-09T02:33:10.053Z,21.59
2019-05-09T02:33:35.037Z,21.58
2019-05-09T02:33:59.810Z,21.58
2019-05-09T02:34:25.073Z,21.58
2019-05-09T02:34:49.801Z,21.58
2019-05-09T02:35:14.983Z,21.58
2019-05-09T02:35:50.972Z,21.59
2019-05-09T02:36:05.893Z,21.59
2019-05-09T02:36:30.540Z,21.59
2019-05-09T02:36:58.425Z,21.58
2019-05-09T02:37:21.494Z,21.60
2019-05-09T02:37:49.575Z,21.59
2019-05-09T02:38:12.463Z,21.58
2019-05-09T02:38:39.229Z,21.59
2019-05-09T02:39:03.641Z,21.59
2019-05-09T02:39:29.395Z,21.59
2019-05-09T02:39:54.238Z,21.59
2019-05-09T02:40:19.029Z,21.59
2019-05-09T02:40:43.765Z,21.59
2019-05-09T02:41:08.720Z,21.59
2019-05-09T02:41:33.622Z,21.58
2019-05-09T02:42:08.451Z,21.58
2019-05-09T02:42:28.231Z,21.58
2019-05-09T02:42:52.963Z,21.58
2019-05-09T02:43:18.666Z,21.56
2019-05-09T02:43:43.509Z,21.57
2019-05-09T02:44:09.290Z,21.56
2019-05-09T02:44:34.251Z,21.56
2019-05-09T02:44:59.547Z,21.56
2019-05-09T02:45:28.415Z,21.56
2019-05-09T02:45:59.395Z,21.56
2019-05-09T02:46:30.697Z,21.56
2019-05-09T02:47:02.945Z,21.56
2019-05-09T02:47:28.963Z,21.56
2019-05-09T02:47:53.894Z,21.56
2019-05-09T02:48:18.772Z,21.54
2019-05-09T02:48:43.442Z,21.55
2019-05-09T02:49:09.022Z,21.54
2019-05-09T02:49:33.822Z,21.54
2019-05-09T02:49:59.140Z,21.54
2019-05-09T02:50:23.961Z,21.54
2019-05-09T02:50:48.808Z,21.54
2019-05-09T02:51:13.556Z,21.54
2019-05-09T02:51:38.874Z,21.54
2019-05-09T02:52:03.736Z,21.55
2019-05-09T02:52:28.948Z,21.55
2019-05-09T02:52:53.601Z,21.55
2019-05-09T02:53:19.075Z,21.54
2019-05-09T02:53:43.890Z,21.54
2019-05-09T02:54:09.977Z,21.54
2019-05-09T02:54:34.813Z,21.55
2019-05-09T02:54:59.455Z,21.55
2019-05-09T02:55:24.100Z,21.55
2019-05-09T02:55:49.652Z,21.55
2019-05-09T02:56:18.507Z,21.55
2019-05-09T02:56:41.641Z,21.55
2019-05-09T02:57:09.275Z,21.55
2019-05-09T02:57:32.645Z,21.54
2019-05-09T02:57:59.236Z,21.54
2019-05-09T02:58:28.131Z,21.55
2019-05-09T02:59:05.560Z,21.54
2019-05-09T02:59:34.934Z,21.54
2019-05-09T03:00:08.656Z,21.54
2019-05-09T03:00:44.216Z,21.53
2019-05-09T03:01:10.451Z,21.54
2019-05-09T03:01:45.587Z,21.53
2019-05-09T03:02:28.918Z,21.52
2019-05-09T03:02:55.365Z,21.51
2019-05-09T03:03:24.121Z,21.50
2019-05-09T03:03:48.781Z,21.49
2019-05-09T03:04:13.983Z,21.48
2019-05-09T03:04:39.204Z,21.47
2019-05-09T03:05:04.654Z,21.46
2019-05-09T03:05:29.875Z,21.46
2019-05-09T03:05:54.729Z,21.48
2019-05-09T03:06:19.822Z,21.47
2019-05-09T03:06:44.560Z,21.47
2019-05-09T03:07:09.861Z,21.48
2019-05-09T03:07:50.007Z,21.47
2019-05-09T03:08:14.639Z,21.47
2019-05-09T03:08:39.206Z,21.49
2019-05-09T03:09:05.051Z,21.47
2019-05-09T03:09:29.736Z,21.47
2019-05-09T03:09:54.360Z,21.46
2019-05-09T03:10:22.301Z,21.47
2019-05-09T03:10:48.943Z,21.47
2019-05-09T03:11:13.931Z,21.47
2019-05-09T03:11:39.020Z,21.48
2019-05-09T03:12:20.993Z,21.48
2019-05-09T03:12:35.430Z,21.48
2019-05-09T03:12:59.216Z,21.47
2019-05-09T03:13:22.752Z,21.47
2019-05-09T03:13:49.593Z,21.47
2019-05-09T03:14:13.933Z,21.48
2019-05-09T03:14:38.707Z,21.48
2019-05-09T03:15:03.970Z,21.47
2019-05-09T03:15:29.356Z,21.47
2019-05-09T03:15:58.584Z,21.48
2019-05-09T03:16:22.267Z,21.48
2019-05-09T03:16:49.127Z,21.48
2019-05-09T03:17:13.899Z,21.48
2019-05-09T03:17:38.722Z,21.49
2019-05-09T03:18:03.522Z,21.48
2019-05-09T03:18:28.713Z,21.48
2019-05-09T03:18:53.409Z,21.49
2019-05-09T03:19:19.360Z,21.49
2019-05-09T03:19:44.538Z,21.50
2019-05-09T03:20:10.838Z,21.49
2019-05-09T03:20:49.502Z,21.50
2019-05-09T03:21:19.309Z,21.49
2019-05-09T03:21:45.712Z,21.49
2019-05-09T03:22:12.000Z,21.48
2019-05-09T03:22:39.445Z,21.49
2019-05-09T03:23:02.991Z,21.48
2019-05-09T03:23:28.593Z,21.47
2019-05-09T03:23:53.507Z,21.48
2019-05-09T03:24:18.611Z,21.45
2019-05-09T03:24:43.494Z,21.46
2019-05-09T03:25:08.974Z,21.45
2019-05-09T03:25:34.008Z,21.46
2019-05-09T03:25:59.104Z,21.45
2019-05-09T03:26:25.603Z,21.45
2019-05-09T03:26:54.603Z,21.44
2019-05-09T03:27:28.762Z,21.45
2019-05-09T03:28:00.403Z,21.45
2019-05-09T03:28:44.913Z,21.46
2019-05-09T03:29:19.957Z,21.45
2019-05-09T03:29:48.964Z,21.45
2019-05-09T03:30:14.178Z,21.45
2019-05-09T03:30:50.225Z,21.43
2019-05-09T03:31:19.708Z,21.43
2019-05-09T03:31:43.526Z,21.42
2019-05-09T03:32:09.420Z,21.42
2019-05-09T03:32:34.194Z,21.41
2019-05-09T03:32:59.602Z,21.40
2019-05-09T03:33:24.598Z,21.40
2019-05-09T03:33:50.058Z,21.40
2019-05-09T03:34:15.120Z,21.40
2019-05-09T03:34:39.710Z,21.40
2019-05-09T03:35:05.776Z,21.41
2019-05-09T03:35:30.411Z,21.41
2019-05-09T03:35:57.296Z,21.41
2019-05-09T03:36:21.366Z,21.41
2019-05-09T03:36:47.673Z,21.42
2019-05-09T03:37:12.403Z,21.42
2019-05-09T03:37:37.826Z,21.43
2019-05-09T03:38:07.860Z,21.43
2019-05-09T03:38:32.068Z,21.43
2019-05-09T03:38:57.869Z,21.43
2019-05-09T03:39:22.598Z,21.44
2019-05-09T03:39:47.792Z,21.42
2019-05-09T03:40:12.493Z,21.44
2019-05-09T03:40:37.900Z,21.44
2019-05-09T03:41:02.600Z,21.44
2019-05-09T03:41:28.231Z,21.44
2019-05-09T03:41:53.060Z,21.44
2019-05-09T03:42:21.388Z,21.45
2019-05-09T03:42:44.093Z,21.45
2019-05-09T03:43:08.675Z,21.44
2019-05-09T03:43:33.309Z,21.44
2019-05-09T03:43:58.561Z,21.45
2019-05-09T03:44:23.399Z,21.45
2019-05-09T03:44:48.095Z,21.46
2019-05-09T03:45:14.363Z,21.45
2019-05-09T03:45:40.598Z,21.46
2019-05-09T03:46:09.652Z,21.45
2019-05-09T03:46:38.268Z,21.45
2019-05-09T03:47:03.840Z,21.46
2019-05-09T03:47:30.120Z,21.45
2019-05-09T03:47:58.272Z,21.45
2019-05-09T03:48:28.378Z,21.46
2019-05-09T03:48:54.982Z,21.45
2019-05-09T03:49:21.277Z,21.45
2019-05-09T03:49:47.697Z,21.44
2019-05-09T03:50:14.168Z,21.44
2019-05-09T03:50:38.855Z,21.43
2019-05-09T03:51:03.475Z,21.42
2019-05-09T03:51:28.093Z,21.42
2019-05-09T03:51:52.729Z,21.41
2019-05-09T03:52:17.819Z,21.42
2019-05-09T03:52:42.457Z,21.42
2019-05-09T03:53:08.394Z,21.43
2019-05-09T03:53:33.145Z,21.42
2019-05-09T03:53:57.792Z,21.42
2019-05-09T03:54:22.393Z,21.43
2019-05-09T03:54:47.705Z,21.42
2019-05-09T03:55:14.080Z,21.42
2019-05-09T03:55:38.727Z,21.42
2019-05-09T03:56:04.984Z,21.43
2019-05-09T03:56:34.251Z,21.44
2019-05-09T03:57:00.477Z,21.42
2019-05-09T03:57:28.309Z,21.41
2019-05-09T03:57:54.715Z,21.43
2019-05-09T03:58:20.723Z,21.43
2019-05-09T03:58:47.393Z,21.42
2019-05-09T03:59:11.799Z,21.41
2019-05-09T03:59:38.112Z,21.41
2019-05-09T04:00:03.267Z,21.41
2019-05-09T04:00:28.419Z,21.41
2019-05-09T04:00:53.132Z,21.41
2019-05-09T04:01:17.811Z,21.41
2019-05-09T04:01:42.433Z,21.40
2019-05-09T04:02:09.993Z,21.41
2019-05-09T04:02:33.364Z,21.40
2019-05-09T04:02:58.216Z,21.40
2019-05-09T04:03:22.831Z,21.40
2019-05-09T04:03:48.149Z,21.40
2019-05-09T04:04:14.046Z,21.40
2019-05-09T04:04:38.665Z,21.40
2019-05-09T04:05:03.607Z,21.41
2019-05-09T04:05:28.223Z,21.40
2019-05-09T04:05:59.226Z,21.41
2019-05-09T04:06:19.228Z,21.41
2019-05-09T04:06:43.913Z,21.41
2019-05-09T04:07:08.587Z,21.41
2019-05-09T04:07:33.251Z,21.40
2019-05-09T04:07:59.577Z,21.40
2019-05-09T04:08:24.193Z,21.39
2019-05-09T04:08:48.824Z,21.39
2019-05-09T04:09:14.053Z,21.38
2019-05-09T04:09:39.738Z,21.37
2019-05-09T04:10:07.765Z,21.37
2019-05-09T04:10:32.592Z,21.37
2019-05-09T04:10:58.633Z,21.37
2019-05-09T04:11:23.494Z,21.37
2019-05-09T04:11:48.628Z,21.36
2019-05-09T04:12:14.054Z,21.35
2019-05-09T04:12:52.811Z,21.35
2019-05-09T04:13:04.997Z,21.34
2019-05-09T04:13:31.319Z,21.35
2019-05-09T04:14:03.720Z,21.32
2019-05-09T04:14:30.001Z,21.33
2019-05-09T04:14:54.619Z,21.33
2019-05-09T04:15:19.289Z,21.32
2019-05-09T04:15:43.902Z,21.32
2019-05-09T04:16:08.545Z,21.31
2019-05-09T04:16:33.142Z,21.29
2019-05-09T04:16:57.770Z,21.29
2019-05-09T04:17:24.031Z,21.29
2019-05-09T04:17:48.652Z,21.28
2019-05-09T04:18:14.053Z,21.29
2019-05-09T04:18:40.279Z,21.29
2019-05-09T04:19:05.073Z,21.28
2019-05-09T04:19:29.685Z,21.28
2019-05-09T04:19:54.356Z,21.28
2019-05-09T04:20:19.003Z,21.29
2019-05-09T04:20:43.627Z,21.29
2019-05-09T04:21:08.546Z,21.29
2019-05-09T04:21:33.224Z,21.29
2019-05-09T04:21:57.839Z,21.29
2019-05-09T04:22:22.537Z,21.30
2019-05-09T04:22:48.988Z,21.30
2019-05-09T04:23:14.129Z,21.29
2019-05-09T04:23:39.075Z,21.31
2019-05-09T04:24:03.708Z,21.31
2019-05-09T04:24:28.893Z,21.31
2019-05-09T04:24:53.503Z,21.32
2019-05-09T04:25:19.806Z,21.32
2019-05-09T04:25:48.811Z,21.34
2019-05-09T04:26:17.626Z,21.34
2019-05-09T04:26:44.007Z,21.35
2019-05-09T04:27:12.977Z,21.36
2019-05-09T04:27:37.881Z,21.35
2019-05-09T04:28:03.625Z,21.36
2019-05-09T04:28:29.893Z,21.36
2019-05-09T04:28:54.493Z,21.37
2019-05-09T04:29:19.231Z,21.37
2019-05-09T04:29:43.831Z,21.37
2019-05-09T04:30:09.567Z,21.38
2019-05-09T04:30:34.365Z,21.37
2019-05-09T04:30:58.947Z,21.39
2019-05-09T04:31:23.718Z,21.39
2019-05-09T04:31:48.496Z,21.40
2019-05-09T04:32:14.089Z,21.40
2019-05-09T04:32:38.709Z,21.40
2019-05-09T04:33:03.336Z,21.41
2019-05-09T04:33:28.112Z,21.42
2019-05-09T04:33:52.751Z,21.44
2019-05-09T04:34:18.320Z,21.45
2019-05-09T04:34:43.074Z,21.46
2019-05-09T04:35:08.162Z,21.47
2019-05-09T04:35:32.826Z,21.48
2019-05-09T04:35:58.029Z,21.48
2019-05-09T04:36:24.433Z,21.51
2019-05-09T04:36:49.065Z,21.51
2019-05-09T04:37:14.164Z,21.52
2019-05-09T04:37:38.798Z,21.53
2019-05-09T04:38:03.412Z,21.53
2019-05-09T04:38:28.070Z,21.55
2019-05-09T04:38:52.708Z,21.56
2019-05-09T04:39:21.612Z,21.58
2019-05-09T04:39:43.666Z,21.57
2019-05-09T04:40:08.373Z,21.58
2019-05-09T04:40:37.671Z,21.60
2019-05-09T04:40:59.330Z,21.60
2019-05-09T04:41:25.388Z,21.63
2019-05-09T04:41:50.156Z,21.65
2019-05-09T04:42:14.777Z,21.66
2019-05-09T04:42:43.054Z,21.68
2019-05-09T04:43:14.036Z,21.69
2019-05-09T04:43:36.679Z,21.70
2019-05-09T04:44:00.010Z,21.71
2019-05-09T04:44:28.307Z,21.73
2019-05-09T04:44:57.670Z,21.74
2019-05-09T04:45:40.262Z,21.75
2019-05-09T04:46:01.995Z,21.77
2019-05-09T04:46:27.713Z,21.79
2019-05-09T04:46:54.114Z,21.80
2019-05-09T04:47:18.794Z,21.81
2019-05-09T04:47:43.653Z,21.82
2019-05-09T04:48:13.189Z,21.82
2019-05-09T04:48:37.629Z,21.84
2019-05-09T04:49:02.781Z,21.85
2019-05-09T04:49:29.793Z,21.84
2019-05-09T04:49:54.007Z,21.86
2019-05-09T04:50:23.481Z,21.87
2019-05-09T04:50:44.988Z,21.88
2019-05-09T04:51:09.597Z,21.88
2019-05-09T04:51:34.237Z,21.89
2019-05-09T04:51:58.860Z,21.89
2019-05-09T04:52:23.495Z,21.89
2019-05-09T04:52:48.138Z,21.90
2019-05-09T04:53:12.776Z,21.90
2019-05-09T04:53:39.794Z,21.90
2019-05-09T04:54:04.185Z,21.90
2019-05-09T04:54:28.822Z,21.91
2019-05-09T04:54:53.448Z,21.90
2019-05-09T04:55:18.473Z,21.91
2019-05-09T04:55:43.058Z,21.91
2019-05-09T04:56:17.389Z,21.92
2019-05-09T04:56:43.138Z,21.93
2019-05-09T04:57:08.049Z,21.93
2019-05-09T04:57:32.720Z,21.93
2019-05-09T04:58:00.123Z,21.92
2019-05-09T04:58:23.686Z,21.91
2019-05-09T04:58:48.376Z,21.92
2019-05-09T04:59:13.022Z,21.91
2019-05-09T04:59:37.636Z,21.91
2019-05-09T05:00:02.328Z,21.91
2019-05-09T05:00:28.592Z,21.91
2019-05-09T05:01:10.094Z,21.90
2019-05-09T05:01:38.761Z,21.89
2019-05-09T05:02:04.365Z,21.90
2019-05-09T05:02:43.010Z,21.91
2019-05-09T05:03:08.022Z,21.90
2019-05-09T05:03:33.122Z,21.89
2019-05-09T05:03:58.508Z,21.87
2019-05-09T05:04:24.412Z,21.88
2019-05-09T05:04:49.010Z,21.88
2019-05-09T05:05:14.468Z,21.88
2019-05-09T05:05:40.134Z,21.86
2019-05-09T05:06:04.856Z,21.87
2019-05-09T05:06:29.535Z,21.86
2019-05-09T05:06:54.127Z,21.87
2019-05-09T05:07:18.914Z,21.86
2019-05-09T05:07:43.550Z,21.86
2019-05-09T05:08:08.181Z,21.86
2019-05-09T05:08:32.949Z,21.86
2019-05-09T05:08:58.623Z,21.87
2019-05-09T05:09:23.397Z,21.87
2019-05-09T05:09:48.477Z,21.86
2019-05-09T05:10:13.224Z,21.88
2019-05-09T05:10:37.787Z,21.87
2019-05-09T05:11:02.495Z,21.87
2019-05-09T05:11:27.912Z,21.88
2019-05-09T05:11:52.816Z,21.88
2019-05-09T05:12:18.546Z,21.89
2019-05-09T05:12:43.548Z,21.90
2019-05-09T05:13:22.175Z,21.90
2019-05-09T05:13:34.468Z,21.90
2019-05-09T05:13:59.094Z,21.91
2019-05-09T05:14:23.726Z,21.91
2019-05-09T05:14:48.357Z,21.92
2019-05-09T05:15:12.966Z,21.92
2019-05-09T05:15:37.825Z,21.92
2019-05-09T05:16:02.575Z,21.93
2019-05-09T05:16:27.446Z,21.93
2019-05-09T05:16:54.874Z,21.93
2019-05-09T05:17:19.111Z,21.94
2019-05-09T05:17:43.688Z,21.95
2019-05-09T05:18:08.587Z,21.95
2019-05-09T05:18:33.256Z,21.94
2019-05-09T05:18:58.481Z,21.95
2019-05-09T05:19:24.120Z,21.96
2019-05-09T05:19:49.184Z,21.96
2019-05-09T05:20:18.410Z,21.97
2019-05-09T05:20:42.372Z,21.96
2019-05-09T05:21:07.788Z,21.97
2019-05-09T05:21:32.613Z,21.96
2019-05-09T05:21:58.906Z,21.97
2019-05-09T05:22:25.136Z,21.97
2019-05-09T05:22:59.982Z,21.97
2019-05-09T05:23:42.506Z,21.96
2019-05-09T05:24:11.612Z,21.98
2019-05-09T05:24:38.228Z,21.97
2019-05-09T05:25:04.113Z,21.96
2019-05-09T05:25:28.729Z,21.97
2019-05-09T05:25:53.371Z,21.96
2019-05-09T05:26:19.471Z,21.95
2019-05-09T05:26:44.144Z,21.95
2019-05-09T05:27:08.723Z,21.94
2019-05-09T05:27:33.404Z,21.95
2019-05-09T05:27:58.225Z,21.95
2019-05-09T05:28:22.926Z,21.94
2019-05-09T05:29:15.130Z,21.99
2019-05-09T05:29:39.753Z,21.94
2019-05-09T05:30:07.492Z,21.95
2019-05-09T05:30:32.378Z,21.95
2019-05-09T05:30:58.227Z,21.96
2019-05-09T05:31:22.933Z,21.97
2019-05-09T05:31:47.889Z,21.97
2019-05-09T05:32:14.153Z,21.98
2019-05-09T05:32:40.475Z,21.99
2019-05-09T05:33:08.110Z,22.00
2019-05-09T05:33:53.927Z,22.00
2019-05-09T05:34:20.516Z,22.01
2019-05-09T05:35:02.919Z,22.01
2019-05-09T05:35:29.175Z,22.01
2019-05-09T05:35:57.396Z,22.02
2019-05-09T05:36:23.432Z,22.02
2019-05-09T05:36:48.087Z,22.01
2019-05-09T05:37:12.699Z,22.01